createdAt,value
2022-11-28T00:00:08.155Z,100715.56
2022-11-28T00:02:39.205Z,100713.78
2022-11-28T00:05:06.204Z,100722.50
2022-11-28T00:07:32.711Z,100713.63
2022-11-28T00:09:59.514Z,100702.19
2022-11-28T00:12:26.235Z,100711.31
2022-11-28T00:14:52.681Z,100702.47
2022-11-28T00:17:19.120Z,100701.09
2022-11-28T00:19:45.621Z,100695.66
2022-11-28T00:22:12.136Z,100691.69
2022-11-28T00:24:39.697Z,100686.09
2022-11-28T00:27:06.260Z,100690.03
2022-11-28T00:29:32.783Z,100692.22
2022-11-28T00:31:59.426Z,100692.53
2022-11-28T00:34:25.917Z,100691.16
2022-11-28T00:36:52.422Z,100681.88
2022-11-28T00:39:18.890Z,100671.38
2022-11-28T00:41:45.819Z,100677.38
2022-11-28T00:44:12.674Z,100669.63
2022-11-28T00:46:39.408Z,100658.69
2022-11-28T00:49:06.468Z,100657.47
2022-11-28T00:51:34.646Z,100655.03
2022-11-28T00:54:03.481Z,100652.19
2022-11-28T00:56:36.609Z,100646.44
2022-11-28T00:59:03.710Z,100646.56
2022-11-28T01:01:35.762Z,100630.66
2022-11-28T01:04:05.310Z,100627.50
2022-11-28T01:06:38.087Z,100630.09
2022-11-28T01:09:07.886Z,100634.44
2022-11-28T01:11:34.843Z,100632.00
2022-11-28T01:14:01.903Z,100635.66
2022-11-28T01:16:30.069Z,100627.34
2022-11-28T01:18:56.670Z,100626.53
2022-11-28T01:21:23.381Z,100625.19
2022-11-28T01:23:50.122Z,100628.88
2022-11-28T01:26:24.143Z,100628.59
2022-11-28T01:28:51.047Z,100633.78
2022-11-28T01:31:20.304Z,100628.03
2022-11-28T01:33:47.020Z,100631.03
2022-11-28T01:36:14.929Z,100625.59
2022-11-28T01:38:42.411Z,100616.44
2022-11-28T01:41:09.585Z,100618.22
2022-11-28T01:43:37.551Z,100619.19
2022-11-28T01:46:05.449Z,100617.41
2022-11-28T01:48:41.826Z,100617.97
2022-11-28T01:51:10.113Z,100624.78
2022-11-28T01:53:42.661Z,100627.22
2022-11-28T01:56:15.351Z,100609.66
2022-11-28T01:58:46.990Z,100605.28
2022-11-28T02:01:13.974Z,100593.41
2022-11-28T02:03:44.049Z,100598.31
2022-11-28T02:06:12.824Z,100590.84
2022-11-28T02:08:39.279Z,100589.59
2022-11-28T02:11:24.552Z,100586.88
2022-11-28T02:14:06.398Z,100592.44
2022-11-28T02:16:47.333Z,100604.22
2022-11-28T02:19:48.074Z,100600.66
2022-11-28T02:22:25.007Z,100602.28
2022-11-28T02:25:13.673Z,100604.72
2022-11-28T02:27:55.076Z,100607.31
2022-11-28T02:30:37.183Z,100620.41
2022-11-28T02:33:03.509Z,100620.25
2022-11-28T02:36:00.386Z,100611.53
2022-11-28T02:38:46.319Z,100617.28
2022-11-28T02:41:34.765Z,100604.59
2022-11-28T02:44:13.846Z,100597.09
2022-11-28T02:47:05.665Z,100599.03
2022-11-28T02:50:10.581Z,100606.66
2022-11-28T02:52:41.509Z,100599.00
2022-11-28T02:55:08.891Z,100596.16
2022-11-28T02:57:41.316Z,100588.13
2022-11-28T03:00:35.816Z,100574.88
2022-11-28T03:03:43.044Z,100574.75
2022-11-28T03:06:19.980Z,100581.44
2022-11-28T03:09:14.054Z,100575.31
2022-11-28T03:11:56.192Z,100572.28
2022-11-28T03:14:31.818Z,100576.38
2022-11-28T03:17:07.401Z,100573.69
2022-11-28T03:19:45.324Z,100567.28
2022-11-28T03:22:35.946Z,100567.97
2022-11-28T03:25:31.037Z,100574.75
2022-11-28T03:28:09.029Z,100588.38
2022-11-28T03:30:35.414Z,100573.94
2022-11-28T03:33:03.285Z,100583.75
2022-11-28T03:35:36.517Z,100574.22
2022-11-28T03:38:13.013Z,100575.44
2022-11-28T03:40:46.889Z,100576.25
2022-11-28T03:43:18.240Z,100578.16
2022-11-28T03:45:48.951Z,100571.22
2022-11-28T03:48:35.770Z,100567.97
2022-11-28T03:51:12.161Z,100558.28
2022-11-28T03:53:56.175Z,100548.88
2022-11-28T03:56:36.499Z,100554.06
2022-11-28T03:59:36.790Z,100561.41
2022-11-28T04:02:41.030Z,100567.09
2022-11-28T04:05:17.158Z,100565.34
2022-11-28T04:08:07.229Z,100555.28
2022-11-28T04:10:41.800Z,100556.50
2022-11-28T04:13:29.479Z,100560.84
2022-11-28T04:16:05.217Z,100570.94
2022-11-28T04:18:43.454Z,100570.25
2022-11-28T04:21:22.573Z,100569.03
2022-11-28T04:23:50.978Z,100570.66
2022-11-28T04:26:23.966Z,100572.84
2022-11-28T04:28:53.199Z,100571.34
2022-11-28T04:31:22.806Z,100569.03
2022-11-28T04:33:56.650Z,100573.94
2022-11-28T04:36:25.726Z,100576.53
2022-11-28T04:38:56.720Z,100581.44
2022-11-28T04:41:30.781Z,100576.25
2022-11-28T04:44:16.787Z,100583.50
2022-11-28T04:46:48.578Z,100591.66
2022-11-28T04:49:15.174Z,100597.38
2022-11-28T04:51:48.416Z,100597.09
2022-11-28T04:54:36.595Z,100590.59
2022-11-28T04:57:13.088Z,100594.78
2022-11-28T04:59:41.867Z,100582.25
2022-11-28T05:02:09.642Z,100590.69
2022-11-28T05:04:37.465Z,100585.94
2022-11-28T05:07:08.283Z,100585.13
2022-11-28T05:09:35.488Z,100582.38
2022-11-28T05:12:02.548Z,100582.94
2022-11-28T05:14:29.183Z,100590.84
2022-11-28T05:16:55.782Z,100592.22
2022-11-28T05:19:22.862Z,100589.06
2022-11-28T05:21:49.422Z,100587.56
2022-11-28T05:24:16.009Z,100580.50
2022-11-28T05:26:42.619Z,100579.69
2022-11-28T05:29:09.221Z,100588.25
2022-11-28T05:31:37.524Z,100594.13
2022-11-28T05:34:04.142Z,100599.56
2022-11-28T05:36:30.663Z,100595.63
2022-11-28T05:38:57.231Z,100584.84
2022-11-28T05:41:29.290Z,100583.75
2022-11-28T05:43:56.656Z,100579.69
2022-11-28T05:46:23.469Z,100578.19
2022-11-28T05:48:50.215Z,100577.91
2022-11-28T05:51:17.267Z,100588.81
2022-11-28T05:53:43.889Z,100578.44
2022-11-28T05:56:16.241Z,100579.69
2022-11-28T05:58:43.727Z,100574.22
2022-11-28T06:01:14.514Z,100578.19
2022-11-28T06:03:41.925Z,100578.88
2022-11-28T06:06:12.585Z,100573.41
2022-11-28T06:08:39.223Z,100559.38
2022-11-28T06:11:06.847Z,100561.13
2022-11-28T06:13:33.435Z,100553.63
2022-11-28T06:15:59.982Z,100553.63
2022-11-28T06:18:26.596Z,100556.94
2022-11-28T06:20:53.124Z,100556.22
2022-11-28T06:23:19.703Z,100551.56
2022-11-28T06:25:46.266Z,100549.53
2022-11-28T06:28:12.767Z,100536.59
2022-11-28T06:30:39.626Z,100531.97
2022-11-28T06:33:06.197Z,100526.69
2022-11-28T06:35:32.736Z,100552.69
2022-11-28T06:37:59.301Z,100546.44
2022-11-28T06:40:25.801Z,100534.41
2022-11-28T06:42:52.373Z,100543.28
2022-11-28T06:45:18.943Z,100541.09
2022-11-28T06:47:45.449Z,100549.28
2022-11-28T06:50:12.356Z,100549.41
2022-11-28T06:52:38.846Z,100557.75
2022-11-28T06:55:05.819Z,100562.34
2022-11-28T06:57:32.830Z,100569.16
2022-11-28T06:59:59.354Z,100569.19
2022-11-28T07:02:27.422Z,100563.88
2022-11-28T07:04:54.022Z,100571.66
2022-11-28T07:07:20.602Z,100573.28
2022-11-28T07:09:47.143Z,100565.38
2022-11-28T07:12:13.950Z,100571.09
2022-11-28T07:14:40.442Z,100572.28
2022-11-28T07:17:07.106Z,100568.63
2022-11-28T07:19:34.295Z,100572.69
2022-11-28T07:22:00.900Z,100568.34
2022-11-28T07:24:27.493Z,100573.91
2022-11-28T07:26:53.931Z,100575.84
2022-11-28T07:29:20.430Z,100575.16
2022-11-28T07:31:47.070Z,100572.16
2022-11-28T07:34:13.923Z,100578.31
2022-11-28T07:36:40.430Z,100579.78
2022-11-28T07:39:10.695Z,100582.66
2022-11-28T07:41:37.224Z,100582.50
2022-11-28T07:44:05.025Z,100580.47
2022-11-28T07:46:34.156Z,100575.94
2022-11-28T07:49:01.778Z,100583.31
2022-11-28T07:51:31.403Z,100578.97
2022-11-28T07:53:58.259Z,100568.88
2022-11-28T07:56:39.377Z,100578.03
2022-11-28T07:59:11.944Z,100576.91
2022-11-28T08:01:38.650Z,100572.00
2022-11-28T08:04:08.104Z,100581.81
2022-11-28T08:06:40.528Z,100579.66
2022-11-28T08:09:08.122Z,100580.34
2022-11-28T08:11:34.965Z,100583.75
2022-11-28T08:14:01.864Z,100588.13
2022-11-28T08:16:30.195Z,100588.78
2022-11-28T08:18:59.694Z,100593.97
2022-11-28T08:21:29.533Z,100594.78
2022-11-28T08:23:59.640Z,100586.31
2022-11-28T08:26:30.528Z,100585.50
2022-11-28T08:28:58.538Z,100589.31
2022-11-28T08:31:36.006Z,100585.63
2022-11-28T08:34:05.779Z,100587.00
2022-11-28T08:36:32.531Z,100587.38
2022-11-28T08:39:22.822Z,100593.78
2022-11-28T08:41:50.060Z,100599.94
2022-11-28T08:44:16.596Z,100593.81
2022-11-28T08:46:43.278Z,100591.78
2022-11-28T08:49:09.805Z,100592.72
2022-11-28T08:51:36.568Z,100592.31
2022-11-28T08:54:03.117Z,100596.25
2022-11-28T08:56:29.650Z,100597.47
2022-11-28T08:58:56.322Z,100600.31
2022-11-28T09:01:26.814Z,100602.50
2022-11-28T09:03:55.339Z,100609.06
2022-11-28T09:06:23.497Z,100608.81
2022-11-28T09:08:50.784Z,100602.25
2022-11-28T09:11:19.665Z,100603.59
2022-11-28T09:13:46.264Z,100614.25
2022-11-28T09:16:13.438Z,100610.97
2022-11-28T09:18:40.205Z,100610.69
2022-11-28T09:21:11.650Z,100618.75
2022-11-28T09:23:40.969Z,100615.47
2022-11-28T09:26:09.706Z,100613.53
2022-11-28T09:28:36.716Z,100618.06
2022-11-28T09:31:04.998Z,100621.88
2022-11-28T09:33:31.918Z,100627.47
2022-11-28T09:35:58.478Z,100625.28
2022-11-28T09:38:26.074Z,100630.19
2022-11-28T09:40:52.727Z,100629.09
2022-11-28T09:43:35.680Z,100630.31
2022-11-28T09:46:09.906Z,100635.38
2022-11-28T09:48:36.512Z,100633.31
2022-11-28T09:51:25.178Z,100634.53
2022-11-28T09:54:13.301Z,100636.44
2022-11-28T09:56:39.950Z,100635.06
2022-11-28T09:59:20.415Z,100629.22
2022-11-28T10:01:52.625Z,100628.81
2022-11-28T10:04:46.639Z,100630.84
2022-11-28T10:07:27.247Z,100625.78
2022-11-28T10:10:09.879Z,100622.63
2022-11-28T10:13:04.366Z,100627.16
2022-11-28T10:15:50.061Z,100632.44
2022-11-28T10:18:47.437Z,100621.69
2022-11-28T10:21:22.975Z,100623.72
2022-11-28T10:23:52.376Z,100627.13
2022-11-28T10:26:31.007Z,100621.25
2022-11-28T10:29:01.989Z,100619.09
2022-11-28T10:31:35.295Z,100615.00
2022-11-28T10:34:04.502Z,100615.13
2022-11-28T10:36:48.618Z,100612.53
2022-11-28T10:39:15.234Z,100611.16
2022-11-28T10:42:13.768Z,100619.06
2022-11-28T10:44:55.228Z,100624.78
2022-11-28T10:47:21.681Z,100623.56
2022-11-28T10:49:48.162Z,100616.44
2022-11-28T10:52:34.275Z,100614.94
2022-11-28T10:55:19.039Z,100609.75
2022-11-28T10:58:07.324Z,100609.50
2022-11-28T11:00:36.287Z,100613.03
2022-11-28T11:03:08.630Z,100613.19
2022-11-28T11:05:36.770Z,100615.47
2022-11-28T11:08:12.642Z,100607.84
2022-11-28T11:10:39.166Z,100608.94
2022-11-28T11:13:34.021Z,100610.44
2022-11-28T11:16:02.775Z,100601.84
2022-11-28T11:18:36.954Z,100603.75
2022-11-28T11:21:09.558Z,100605.41
2022-11-28T11:23:38.461Z,100608.00
2022-11-28T11:26:10.080Z,100612.63
2022-11-28T11:28:39.726Z,100600.50
2022-11-28T11:31:16.328Z,100602.44
2022-11-28T11:33:43.363Z,100604.31
2022-11-28T11:36:24.602Z,100605.13
2022-11-28T11:38:51.905Z,100613.75
2022-11-28T11:41:30.576Z,100600.66
2022-11-28T11:44:29.153Z,100608.66
2022-11-28T11:47:03.445Z,100604.53
2022-11-28T11:49:32.960Z,100617.13
2022-11-28T11:52:06.122Z,100609.06
2022-11-28T11:54:33.083Z,100617.50
2022-11-28T11:57:24.999Z,100619.75
2022-11-28T11:59:53.006Z,100624.13
2022-11-28T12:02:40.957Z,100626.16
2022-11-28T12:05:13.225Z,100632.72
2022-11-28T12:07:53.662Z,100632.28
2022-11-28T12:10:23.667Z,100632.16
2022-11-28T12:12:50.531Z,100629.25
2022-11-28T12:15:40.327Z,100631.59
2022-11-28T12:18:25.412Z,100628.47
2022-11-28T12:21:07.365Z,100634.19
2022-11-28T12:23:52.504Z,100630.78
2022-11-28T12:26:27.263Z,100623.44
2022-11-28T12:29:12.037Z,100627.25
2022-11-28T12:31:44.664Z,100627.66
2022-11-28T12:34:52.442Z,100623.44
2022-11-28T12:37:21.828Z,100628.63
2022-11-28T12:40:03.472Z,100625.88
2022-11-28T12:42:56.230Z,100624.22
2022-11-28T12:45:41.000Z,100619.84
2022-11-28T12:48:28.508Z,100621.34
2022-11-28T12:51:07.470Z,100623.00
2022-11-28T12:53:37.126Z,100618.75
2022-11-28T12:56:22.302Z,100615.06
2022-11-28T12:59:00.111Z,100618.88
2022-11-28T13:01:35.663Z,100612.31
2022-11-28T13:04:23.263Z,100613.94
2022-11-28T13:07:14.881Z,100617.34
2022-11-28T13:10:00.427Z,100621.47
2022-11-28T13:12:48.366Z,100611.66
2022-11-28T13:15:14.829Z,100620.19
2022-11-28T13:18:19.683Z,100617.91
2022-11-28T13:21:10.545Z,100619.53
2022-11-28T13:23:45.633Z,100619.84
2022-11-28T13:26:38.612Z,100627.16
2022-11-28T13:29:37.310Z,100626.75
2022-11-28T13:32:35.446Z,100627.47
2022-11-28T13:35:03.433Z,100623.09
2022-11-28T13:40:39.150Z,100629.09
2022-11-28T13:43:33.051Z,100630.28
2022-11-28T13:46:00.149Z,100621.72
2022-11-28T13:51:32.457Z,100624.72
2022-11-28T13:54:25.676Z,100621.47
2022-11-28T13:57:29.831Z,100623.50
2022-11-28T13:59:58.762Z,100625.38
2022-11-28T14:02:36.912Z,100622.78
2022-11-28T14:05:05.854Z,100623.56
2022-11-28T14:07:33.736Z,100621.41
2022-11-28T14:10:35.699Z,100621.56
2022-11-28T14:13:32.665Z,100619.63
2022-11-28T14:16:07.849Z,100616.09
2022-11-28T14:18:56.985Z,100620.59
2022-11-28T14:22:13.359Z,100616.22
2022-11-28T14:25:15.212Z,100619.94
2022-11-28T14:27:57.128Z,100624.81
2022-11-28T14:30:33.879Z,100626.59
2022-11-28T14:33:06.193Z,100626.47
2022-11-28T14:35:50.849Z,100643.34
2022-11-28T14:38:30.142Z,100638.31
2022-11-28T14:41:01.333Z,100645.53
2022-11-28T14:43:32.724Z,100647.00
2022-11-28T14:46:15.320Z,100651.13
2022-11-28T14:49:02.667Z,100656.94
2022-11-28T14:51:48.282Z,100651.59
2022-11-28T14:54:35.388Z,100660.75
2022-11-28T14:57:12.551Z,100653.94
2022-11-28T14:59:40.127Z,100650.81
2022-11-28T15:02:10.607Z,100665.72
2022-11-28T15:05:02.030Z,100664.59
2022-11-28T15:07:50.285Z,100666.53
2022-11-28T15:10:32.197Z,100674.97
2022-11-28T15:13:04.626Z,100669.78
2022-11-28T15:15:32.047Z,100671.44
2022-11-28T15:18:02.243Z,100676.19
2022-11-28T15:20:38.791Z,100677.84
2022-11-28T15:23:05.581Z,100671.53
2022-11-28T15:25:39.795Z,100673.16
2022-11-28T15:28:15.357Z,100675.09
2022-11-28T15:30:47.830Z,100670.16
2022-11-28T15:33:14.823Z,100682.47
2022-11-28T15:36:00.587Z,100674.53
2022-11-28T15:38:30.547Z,100676.72
2022-11-28T15:40:58.903Z,100676.06
2022-11-28T15:43:26.504Z,100686.56
2022-11-28T15:45:58.517Z,100687.00
2022-11-28T15:48:37.516Z,100689.59
2022-11-28T15:51:07.840Z,100677.44
2022-11-28T15:53:40.624Z,100674.84
2022-11-28T15:56:15.491Z,100676.47
2022-11-28T15:58:44.012Z,100677.44
2022-11-28T16:01:17.879Z,100682.47
2022-11-28T16:03:56.702Z,100682.75
2022-11-28T16:06:30.219Z,100691.50
2022-11-28T16:09:17.242Z,100689.88
2022-11-28T16:11:49.657Z,100696.69
2022-11-28T16:14:21.343Z,100698.84
2022-11-28T16:16:48.152Z,100698.59
2022-11-28T16:19:34.141Z,100702.13
2022-11-28T16:22:11.633Z,100705.69
2022-11-28T16:24:47.316Z,100704.88
2022-11-28T16:27:38.057Z,100712.06
2022-11-28T16:30:27.475Z,100709.22
2022-11-28T16:32:56.070Z,100718.78
2022-11-28T16:35:40.577Z,100714.97
2022-11-28T16:38:18.129Z,100709.09
2022-11-28T16:40:44.978Z,100713.59
2022-11-28T16:43:24.827Z,100715.31
2022-11-28T16:46:03.144Z,100708.53
2022-11-28T16:48:34.419Z,100709.97
2022-11-28T16:51:13.256Z,100711.75
2022-11-28T16:53:49.964Z,100707.28
2022-11-28T16:56:31.853Z,100710.56
2022-11-28T16:59:07.362Z,100716.81
2022-11-28T17:01:35.084Z,100714.28
2022-11-28T17:04:02.048Z,100717.41
2022-11-28T17:06:34.316Z,100714.66
2022-11-28T17:09:01.751Z,100721.47
2022-11-28T17:11:32.561Z,100719.47
2022-11-28T17:14:02.294Z,100728.19
2022-11-28T17:16:29.881Z,100721.69
2022-11-28T17:18:56.468Z,100733.44
2022-11-28T17:21:34.265Z,100729.34
2022-11-28T17:24:01.264Z,100741.09
2022-11-28T17:26:27.775Z,100743.53
2022-11-28T17:28:54.524Z,100750.38
2022-11-28T17:31:22.178Z,100750.38
2022-11-28T17:33:48.734Z,100747.47
2022-11-28T17:36:15.320Z,100740.50
2022-11-28T17:38:41.926Z,100746.00
2022-11-28T17:41:13.646Z,100750.13
2022-11-28T17:43:40.860Z,100750.66
2022-11-28T17:46:08.713Z,100743.31
2022-11-28T17:48:35.375Z,100756.59
2022-11-28T17:51:03.590Z,100763.13
2022-11-28T17:53:30.586Z,100767.38
2022-11-28T17:55:59.608Z,100766.25
2022-11-28T17:58:27.358Z,100775.91
2022-11-28T18:01:00.243Z,100780.00
2022-11-28T18:03:28.142Z,100770.09
2022-11-28T18:05:54.774Z,100775.59
2022-11-28T18:08:22.513Z,100769.66
2022-11-28T18:10:49.438Z,100761.84
2022-11-28T18:13:17.562Z,100769.50
2022-11-28T18:15:46.929Z,100775.38
2022-11-28T18:18:15.498Z,100775.06
2022-11-28T18:20:42.495Z,100779.59
2022-11-28T18:23:10.972Z,100777.38
2022-11-28T18:25:41.692Z,100779.16
2022-11-28T18:28:08.237Z,100775.00
2022-11-28T18:30:34.729Z,100779.81
2022-11-28T18:33:01.374Z,100768.34
2022-11-28T18:35:27.856Z,100771.94
2022-11-28T18:37:54.752Z,100769.63
2022-11-28T18:40:21.305Z,100773.19
2022-11-28T18:42:47.765Z,100776.78
2022-11-28T18:45:14.281Z,100776.69
2022-11-28T18:47:40.998Z,100776.09
2022-11-28T18:50:08.570Z,100766.28
2022-11-28T18:52:35.307Z,100775.88
2022-11-28T18:55:01.914Z,100777.59
2022-11-28T18:57:32.539Z,100772.16
2022-11-28T19:00:00.893Z,100779.00
2022-11-28T19:02:28.808Z,100788.25
2022-11-28T19:04:55.972Z,100786.38
2022-11-28T19:07:24.482Z,100793.44
2022-11-28T19:09:51.666Z,100787.59
2022-11-28T19:12:19.699Z,100785.91
2022-11-28T19:14:46.525Z,100794.78
2022-11-28T19:17:13.079Z,100793.97
2022-11-28T19:19:41.245Z,100792.00
2022-11-28T19:22:07.892Z,100791.72
2022-11-28T19:24:34.898Z,100801.00
2022-11-28T19:27:01.417Z,100805.63
2022-11-28T19:29:27.891Z,100806.22
2022-11-28T19:31:54.574Z,100799.38
2022-11-28T19:34:21.382Z,100804.28
2022-11-28T19:36:50.924Z,100802.19
2022-11-28T19:39:23.664Z,100806.59
2022-11-28T19:41:52.404Z,100811.19
2022-11-28T19:44:20.837Z,100806.28
2022-11-28T19:46:47.993Z,100809.69
2022-11-28T19:49:20.508Z,100812.16
2022-11-28T19:51:48.686Z,100813.78
2022-11-28T19:54:19.460Z,100811.47
2022-11-28T19:56:46.760Z,100808.44
2022-11-28T19:59:13.405Z,100805.00
2022-11-28T20:01:40.331Z,100805.31
2022-11-28T20:04:07.640Z,100814.75
2022-11-28T20:06:34.791Z,100814.06
2022-11-28T20:09:07.224Z,100816.03
2022-11-28T20:11:37.154Z,100816.84
2022-11-28T20:14:06.992Z,100823.66
2022-11-28T20:16:36.052Z,100825.41
2022-11-28T20:19:04.849Z,100832.22
2022-11-28T20:21:33.562Z,100836.19
2022-11-28T20:24:04.489Z,100832.22
2022-11-28T20:26:39.459Z,100831.47
2022-11-28T20:29:07.170Z,100833.69
2022-11-28T20:31:44.963Z,100837.94
2022-11-28T20:34:16.836Z,100838.09
2022-11-28T20:36:44.031Z,100847.69
2022-11-28T20:39:12.087Z,100837.13
2022-11-28T20:41:38.619Z,100848.50
2022-11-28T20:44:05.328Z,100841.06
2022-11-28T20:46:34.042Z,100843.22
2022-11-28T20:49:02.448Z,100837.59
2022-11-28T20:51:31.154Z,100850.44
2022-11-28T20:53:59.388Z,100846.88
2022-11-28T20:56:29.613Z,100846.56
2022-11-28T20:58:58.641Z,100856.28
2022-11-28T21:01:27.519Z,100856.13
2022-11-28T21:03:54.119Z,100854.66
2022-11-28T21:06:20.661Z,100859.72
2022-11-28T21:08:47.787Z,100861.50
2022-11-28T21:11:36.386Z,100855.63
2022-11-28T21:14:04.982Z,100860.03
2022-11-28T21:16:33.141Z,100856.72
2022-11-28T21:19:04.946Z,100857.53
2022-11-28T21:21:33.678Z,100861.28
2022-11-28T21:24:03.136Z,100864.84
2022-11-28T21:26:30.984Z,100859.50
2022-11-28T21:29:03.406Z,100867.44
2022-11-28T21:31:33.385Z,100871.16
2022-11-28T21:34:00.270Z,100871.44
2022-11-28T21:36:28.996Z,100873.91
2022-11-28T21:38:57.891Z,100868.03
2022-11-28T21:41:28.325Z,100868.84
2022-11-28T21:43:55.333Z,100869.13
2022-11-28T21:46:22.884Z,100875.19
2022-11-28T21:48:49.517Z,100869.97
2022-11-28T21:51:22.189Z,100872.56
2022-11-28T21:53:48.911Z,100871.44
2022-11-28T21:56:15.444Z,100870.63
2022-11-28T21:58:42.774Z,100875.84
2022-11-28T22:01:11.966Z,100869.00
2022-11-28T22:03:40.191Z,100873.41
2022-11-28T22:06:15.230Z,100876.94
2022-11-28T22:08:42.260Z,100882.97
2022-11-28T22:11:11.138Z,100880.81
2022-11-28T22:13:39.493Z,100879.03
2022-11-28T22:16:11.513Z,100875.63
2022-11-28T22:18:38.583Z,100881.63
2022-11-28T22:21:28.633Z,100878.59
2022-11-28T22:23:53.671Z,100870.25
2022-11-28T22:26:20.599Z,100879.84
2022-11-28T22:28:53.245Z,100879.19
2022-11-28T22:31:20.666Z,100881.63
2022-11-28T22:33:49.859Z,100882.59
2022-11-28T22:36:18.657Z,100891.38
2022-11-28T22:38:48.030Z,100893.13
2022-11-28T22:41:20.787Z,100893.97
2022-11-28T22:43:54.437Z,100895.72
2022-11-28T22:46:21.041Z,100894.78
2022-11-28T22:48:48.024Z,100900.09
2022-11-28T22:51:17.327Z,100900.09
2022-11-28T22:53:44.357Z,100899.97
2022-11-28T22:56:14.532Z,100899.97
2022-11-28T22:58:44.321Z,100909.03
2022-11-28T23:01:13.232Z,100906.59
2022-11-28T23:03:40.131Z,100909.63
2022-11-28T23:06:19.364Z,100909.31
2022-11-28T23:08:46.936Z,100914.50
2022-11-28T23:11:16.207Z,100914.50
2022-11-28T23:13:43.823Z,100912.59
2022-11-28T23:16:16.270Z,100917.78
2022-11-28T23:18:44.630Z,100920.41
2022-11-28T23:21:12.758Z,100922.31
2022-11-28T23:23:40.926Z,100925.88
2022-11-28T23:26:10.190Z,100913.19
2022-11-28T23:28:38.673Z,100922.31
2022-11-28T23:31:18.027Z,100920.97
2022-11-28T23:33:45.431Z,100920.69
2022-11-28T23:36:24.156Z,100918.50
2022-11-28T23:38:56.841Z,100927.16
2022-11-28T23:41:24.038Z,100921.41
2022-11-28T23:43:50.589Z,100921.25
2022-11-28T23:46:18.623Z,100918.38
2022-11-28T23:48:46.135Z,100924.41
2022-11-28T23:51:14.295Z,100919.19
2022-11-28T23:53:41.750Z,100924.41
2022-11-28T23:56:11.610Z,100923.59
2022-11-28T23:58:38.801Z,100924.56
